createdAt,value
2023-02-13T00:00:13.191Z,-1.06
2023-02-13T00:03:41.029Z,-1.09
2023-02-13T00:07:08.582Z,-1.17
2023-02-13T00:10:36.315Z,-1.20
2023-02-13T00:14:05.092Z,-1.25
2023-02-13T00:16:34.552Z,-1.26
2023-02-13T00:19:43.520Z,-1.30
2023-02-13T00:23:11.307Z,-1.32
2023-02-13T00:26:39.082Z,-1.36
2023-02-13T00:30:06.848Z,-1.39
2023-02-13T00:33:34.972Z,-1.40
2023-02-13T00:36:58.692Z,-1.43
2023-02-13T00:40:26.350Z,-1.44
2023-02-13T00:43:54.644Z,-1.47
2023-02-13T00:47:22.475Z,-1.46
2023-02-13T00:50:50.574Z,-1.46
2023-02-13T00:54:18.526Z,-1.48
2023-02-13T00:57:27.251Z,-1.48
2023-02-13T01:00:55.664Z,-1.50
2023-02-13T01:04:23.210Z,-1.51
2023-02-13T01:07:51.054Z,-1.50
2023-02-13T01:11:00.825Z,-1.50
2023-02-13T01:13:49.651Z,-1.52
2023-02-13T01:16:59.544Z,-1.51
2023-02-13T01:20:27.378Z,-1.54
2023-02-13T01:23:55.318Z,-1.55
2023-02-13T01:27:23.161Z,-1.55
2023-02-13T01:30:13.020Z,-1.55
2023-02-13T01:33:40.843Z,-1.54
2023-02-13T01:37:08.776Z,-1.55
2023-02-13T01:40:36.664Z,-1.56
2023-02-13T01:43:40.922Z,-1.58
2023-02-13T01:47:08.726Z,-1.61
2023-02-13T01:50:36.566Z,-1.62
2023-02-13T01:54:04.546Z,-1.65
2023-02-13T01:57:32.238Z,-1.67
2023-02-13T02:00:42.163Z,-1.67
2023-02-13T02:04:09.921Z,-1.67
2023-02-13T02:07:37.745Z,-1.68
2023-02-13T02:11:05.483Z,-1.71
2023-02-13T02:14:33.445Z,-1.75
2023-02-13T02:18:01.223Z,-1.77
2023-02-13T02:21:09.040Z,-1.80
2023-02-13T02:24:37.185Z,-1.81
2023-02-13T02:28:04.991Z,-1.83
2023-02-13T02:31:13.987Z,-1.84
2023-02-13T02:34:41.676Z,-1.86
2023-02-13T02:38:09.498Z,-1.90
2023-02-13T02:41:37.391Z,-1.93
2023-02-13T02:45:05.260Z,-1.97
2023-02-13T02:48:32.977Z,-1.99
2023-02-13T02:52:03.084Z,-1.98
2023-02-13T02:55:27.072Z,-1.99
2023-02-13T02:58:36.430Z,-2.04
2023-02-13T03:02:04.542Z,-2.05
2023-02-13T03:05:32.419Z,-2.08
2023-02-13T03:09:00.375Z,-2.11
2023-02-13T03:12:28.348Z,-2.11
2023-02-13T03:15:56.609Z,-2.18
2023-02-13T03:19:24.512Z,-2.30
2023-02-13T03:22:52.695Z,-2.39
2023-02-13T03:26:20.544Z,-2.48
2023-02-13T03:29:44.694Z,-2.59
2023-02-13T03:33:12.895Z,-2.65
2023-02-13T03:36:40.790Z,-2.68
2023-02-13T03:40:08.813Z,-2.70
2023-02-13T03:43:37.081Z,-2.72
2023-02-13T03:47:04.939Z,-2.72
2023-02-13T03:50:32.969Z,-2.74
2023-02-13T03:54:01.120Z,-2.73
2023-02-13T03:57:29.340Z,-2.74
2023-02-13T04:00:57.637Z,-2.75
2023-02-13T04:04:06.158Z,-2.73
2023-02-13T04:07:34.252Z,-2.71
2023-02-13T04:11:02.015Z,-2.71
2023-02-13T04:14:30.026Z,-2.71
2023-02-13T04:17:58.429Z,-2.69
2023-02-13T04:21:26.374Z,-2.63
2023-02-13T04:24:54.150Z,-2.66
2023-02-13T04:28:21.972Z,-2.68
2023-02-13T04:31:50.128Z,-2.69
2023-02-13T04:35:18.359Z,-2.72
2023-02-13T04:38:46.505Z,-2.77
2023-02-13T04:42:14.613Z,-2.79
2023-02-13T04:45:42.716Z,-2.79
2023-02-13T04:49:10.800Z,-2.76
2023-02-13T04:52:20.707Z,-2.77
2023-02-13T04:55:48.804Z,-2.81
2023-02-13T04:59:16.623Z,-2.83
2023-02-13T05:02:44.394Z,-2.82
2023-02-13T05:06:12.130Z,-2.82
2023-02-13T05:09:41.534Z,-2.83
2023-02-13T05:13:08.400Z,-2.82
2023-02-13T05:15:58.820Z,-2.80
2023-02-13T05:19:26.441Z,-2.73
2023-02-13T05:22:54.184Z,-2.74
2023-02-13T05:26:22.094Z,-2.62
2023-02-13T05:29:50.234Z,-2.57
2023-02-13T05:33:17.981Z,-2.55
2023-02-13T05:36:46.074Z,-2.57
2023-02-13T05:39:54.973Z,-2.65
2023-02-13T05:43:22.924Z,-2.72
2023-02-13T05:46:51.179Z,-2.75
2023-02-13T05:50:19.010Z,-2.79
2023-02-13T05:53:46.944Z,-2.87
2023-02-13T05:57:14.933Z,-2.86
2023-02-13T06:00:42.814Z,-2.87
2023-02-13T06:04:10.803Z,-2.85
2023-02-13T06:07:20.221Z,-2.77
2023-02-13T06:10:48.173Z,-2.67
2023-02-13T06:14:16.098Z,-2.60
2023-02-13T06:17:44.200Z,-2.55
2023-02-13T06:21:12.158Z,-2.53
2023-02-13T06:24:40.003Z,-2.53
2023-02-13T06:28:03.990Z,-2.47
2023-02-13T06:31:33.070Z,-2.42
2023-02-13T06:35:01.036Z,-2.39
2023-02-13T06:38:10.545Z,-2.37
2023-02-13T06:41:38.596Z,-2.45
2023-02-13T06:45:06.405Z,-2.52
2023-02-13T06:48:15.315Z,-2.53
2023-02-13T06:51:44.667Z,-2.49
2023-02-13T06:55:12.870Z,-2.37
2023-02-13T06:58:22.006Z,-2.20
2023-02-13T07:01:50.893Z,-2.13
2023-02-13T07:05:19.072Z,-2.04
2023-02-13T07:08:47.523Z,-1.96
2023-02-13T07:12:15.616Z,-1.78
2023-02-13T07:15:43.170Z,-1.64
2023-02-13T07:19:10.924Z,-1.57
2023-02-13T07:22:39.619Z,-1.52
2023-02-13T07:25:52.053Z,-1.52
2023-02-13T07:29:19.857Z,-1.34
2023-02-13T07:32:27.808Z,-1.16
2023-02-13T07:35:55.894Z,-1.01
2023-02-13T07:39:23.836Z,-0.87
2023-02-13T07:42:33.273Z,-0.86
2023-02-13T07:46:01.396Z,-0.85
2023-02-13T07:49:29.867Z,-0.73
2023-02-13T07:52:57.717Z,-0.52
2023-02-13T07:56:25.574Z,-0.36
2023-02-13T07:59:53.704Z,-0.27
2023-02-13T08:03:21.802Z,-0.25
2023-02-13T08:06:49.573Z,-0.29
2023-02-13T08:09:25.490Z,-0.17
2023-02-13T08:12:37.271Z,-0.01
2023-02-13T08:16:05.309Z,0.22
2023-02-13T08:19:33.133Z,0.44
2023-02-13T08:22:41.623Z,0.46
2023-02-13T08:25:49.755Z,0.54
2023-02-13T08:29:17.611Z,0.68
2023-02-13T08:32:54.486Z,0.93
2023-02-13T08:35:55.921Z,1.09
2023-02-13T08:39:23.685Z,1.16
2023-02-13T08:42:51.760Z,1.36
2023-02-13T08:46:19.528Z,1.57
2023-02-13T08:49:47.807Z,1.70
2023-02-13T08:53:15.943Z,1.75
2023-02-13T08:56:39.214Z,1.90
2023-02-13T08:59:51.174Z,2.07
2023-02-13T09:03:18.992Z,2.26
2023-02-13T09:06:46.769Z,2.42
2023-02-13T09:10:14.720Z,2.60
2023-02-13T09:13:42.540Z,2.71
2023-02-13T09:17:05.878Z,2.89
2023-02-13T09:20:35.742Z,3.07
2023-02-13T09:24:01.941Z,3.20
2023-02-13T09:26:51.441Z,3.19
2023-02-13T09:29:59.671Z,3.39
2023-02-13T09:33:27.821Z,3.52
2023-02-13T09:36:55.784Z,3.57
2023-02-13T09:40:23.866Z,3.74
2023-02-13T09:43:52.041Z,3.89
2023-02-13T09:47:08.217Z,4.14
2023-02-13T09:50:36.098Z,4.27
2023-02-13T09:54:04.027Z,4.40
2023-02-13T09:57:31.862Z,4.54
2023-02-13T10:00:48.727Z,4.70
2023-02-13T10:04:15.349Z,4.83
2023-02-13T10:07:43.191Z,4.89
2023-02-13T10:10:31.829Z,5.10
2023-02-13T10:13:21.935Z,5.30
2023-02-13T10:16:49.041Z,5.34
2023-02-13T10:19:57.914Z,5.49
2023-02-13T10:23:25.772Z,5.76
2023-02-13T10:26:54.346Z,5.72
2023-02-13T10:30:22.293Z,5.75
2023-02-13T10:33:50.157Z,5.81
2023-02-13T10:37:18.326Z,5.70
2023-02-13T10:40:10.589Z,5.88
2023-02-13T10:43:22.483Z,6.03
2023-02-13T10:46:31.090Z,6.08
2023-02-13T10:49:40.204Z,6.30
2023-02-13T10:52:48.193Z,6.43
2023-02-13T10:56:16.204Z,6.70
2023-02-13T10:59:44.116Z,6.78
2023-02-13T11:03:12.346Z,6.93
2023-02-13T11:06:40.485Z,7.04
2023-02-13T11:10:04.266Z,7.20
2023-02-13T11:13:14.459Z,7.25
2023-02-13T11:16:42.634Z,7.19
2023-02-13T11:19:39.156Z,7.27
2023-02-13T11:22:48.068Z,7.39
2023-02-13T11:25:57.762Z,7.50
2023-02-13T11:29:25.545Z,7.58
2023-02-13T11:32:41.638Z,7.72
2023-02-13T11:35:50.448Z,7.83
2023-02-13T11:39:18.280Z,7.94
2023-02-13T11:42:46.399Z,8.02
2023-02-13T11:46:16.427Z,7.99
2023-02-13T11:49:42.480Z,8.27
2023-02-13T11:53:10.439Z,8.20
2023-02-13T11:56:18.963Z,8.34
2023-02-13T11:59:47.033Z,8.45
2023-02-13T12:02:40.429Z,8.58
2023-02-13T12:05:48.222Z,8.44
2023-02-13T12:08:17.659Z,8.54
2023-02-13T12:11:45.686Z,8.42
2023-02-13T12:15:09.292Z,8.42
2023-02-13T12:18:20.835Z,8.71
2023-02-13T12:21:24.354Z,8.95
2023-02-13T12:24:20.160Z,9.12
2023-02-13T12:27:48.131Z,9.18
2023-02-13T12:31:15.992Z,9.43
2023-02-13T12:34:24.365Z,9.43
2023-02-13T12:37:36.198Z,9.53
2023-02-13T12:40:59.907Z,9.56
2023-02-13T12:43:51.960Z,9.51
2023-02-13T12:47:02.258Z,9.39
2023-02-13T12:50:11.954Z,9.53
2023-02-13T12:53:40.245Z,9.58
2023-02-13T12:56:49.465Z,9.67
2023-02-13T13:00:05.091Z,9.43
2023-02-13T13:02:33.017Z,9.41
2023-02-13T13:06:10.969Z,9.59
2023-02-13T13:09:08.668Z,9.89
2023-02-13T13:12:16.509Z,9.70
2023-02-13T13:15:06.345Z,9.48
2023-02-13T13:18:34.217Z,9.36
2023-02-13T13:22:02.731Z,9.48
2023-02-13T13:25:30.414Z,9.73
2023-02-13T13:28:58.238Z,10.11
2023-02-13T13:32:26.423Z,10.49
2023-02-13T13:35:17.910Z,10.27
2023-02-13T13:38:15.088Z,10.45
2023-02-13T13:41:43.116Z,10.77
2023-02-13T13:44:52.155Z,10.67
2023-02-13T13:48:01.399Z,10.53
2023-02-13T13:51:01.155Z,11.03
2023-02-13T13:54:04.664Z,11.05
2023-02-13T13:56:57.786Z,11.08
2023-02-13T13:59:47.675Z,11.24
2023-02-13T14:02:37.602Z,11.09
2023-02-13T14:05:46.277Z,11.35
2023-02-13T14:08:55.193Z,11.57
2023-02-13T14:11:48.981Z,11.04
2023-02-13T14:15:16.888Z,10.45
2023-02-13T14:18:44.854Z,10.18
2023-02-13T14:21:54.752Z,9.60
2023-02-13T14:25:12.119Z,9.47
2023-02-13T14:28:40.105Z,8.97
2023-02-13T14:31:46.525Z,8.52
2023-02-13T14:34:49.727Z,8.31
2023-02-13T14:37:49.651Z,8.15
2023-02-13T14:40:20.188Z,7.89
2023-02-13T14:43:48.174Z,7.89
2023-02-13T14:47:04.483Z,7.83
2023-02-13T14:50:32.513Z,7.69
2023-02-13T14:53:21.400Z,7.63
2023-02-13T14:56:46.101Z,7.55
2023-02-13T15:00:14.127Z,7.60
2023-02-13T15:03:37.358Z,7.61
2023-02-13T15:06:37.826Z,7.63
2023-02-13T15:10:05.847Z,7.52
2023-02-13T15:13:33.972Z,7.48
2023-02-13T15:16:38.245Z,7.42
2023-02-13T15:20:05.991Z,7.39
2023-02-13T15:23:34.025Z,7.82
2023-02-13T15:27:01.798Z,8.33
2023-02-13T15:30:29.908Z,8.64
2023-02-13T15:33:57.831Z,8.87
2023-02-13T15:37:25.633Z,8.84
2023-02-13T15:40:37.706Z,8.46
2023-02-13T15:44:06.081Z,8.12
2023-02-13T15:46:54.480Z,7.75
2023-02-13T15:50:10.081Z,7.46
2023-02-13T15:53:38.110Z,7.20
2023-02-13T15:56:47.269Z,6.98
2023-02-13T16:00:15.423Z,6.75
2023-02-13T16:03:43.614Z,6.52
2023-02-13T16:07:11.909Z,6.35
2023-02-13T16:10:23.896Z,6.23
2023-02-13T16:13:51.881Z,6.11
2023-02-13T16:17:15.838Z,6.06
2023-02-13T16:20:43.633Z,6.04
2023-02-13T16:24:11.702Z,6.04
2023-02-13T16:27:03.687Z,6.06
2023-02-13T16:30:15.230Z,6.01
2023-02-13T16:33:45.265Z,6.03
2023-02-13T16:36:42.507Z,6.07
2023-02-13T16:40:10.394Z,6.09
2023-02-13T16:43:38.446Z,6.08
2023-02-13T16:47:06.793Z,6.02
2023-02-13T16:50:34.635Z,5.92
2023-02-13T16:53:50.576Z,5.85
2023-02-13T16:57:18.832Z,5.78
2023-02-13T17:00:35.725Z,5.70
2023-02-13T17:04:04.176Z,5.60
2023-02-13T17:07:11.799Z,5.52
2023-02-13T17:10:39.930Z,5.43
2023-02-13T17:13:55.979Z,5.37
2023-02-13T17:17:23.814Z,5.36
2023-02-13T17:20:13.198Z,5.35
2023-02-13T17:23:21.017Z,5.36
2023-02-13T17:26:48.689Z,5.35
2023-02-13T17:29:58.639Z,5.27
2023-02-13T17:33:26.722Z,5.24
2023-02-13T17:36:57.975Z,5.25
2023-02-13T17:40:26.339Z,5.20
2023-02-13T17:43:35.586Z,5.12
2023-02-13T17:47:03.499Z,4.98
2023-02-13T17:50:27.939Z,4.89
2023-02-13T17:53:56.349Z,4.81
2023-02-13T17:57:01.699Z,4.73
2023-02-13T18:00:09.461Z,4.67
2023-02-13T18:03:23.514Z,4.60
2023-02-13T18:06:32.477Z,4.56
2023-02-13T18:09:22.515Z,4.52
2023-02-13T18:12:50.665Z,4.47
2023-02-13T18:16:18.915Z,4.44
2023-02-13T18:19:46.916Z,4.40
2023-02-13T18:23:14.886Z,4.32
2023-02-13T18:26:24.072Z,4.31
2023-02-13T18:29:51.910Z,4.27
2023-02-13T18:33:19.748Z,4.20
2023-02-13T18:36:28.278Z,4.17
2023-02-13T18:39:56.127Z,4.14
2023-02-13T18:43:23.888Z,4.12
2023-02-13T18:46:17.026Z,4.11
2023-02-13T18:49:45.225Z,4.08
2023-02-13T18:53:13.653Z,4.04
2023-02-13T18:56:41.829Z,4.02
2023-02-13T18:59:49.094Z,4.04
2023-02-13T19:03:16.888Z,4.04
2023-02-13T19:06:45.046Z,4.02
2023-02-13T19:10:12.830Z,3.96
2023-02-13T19:13:40.722Z,3.91
2023-02-13T19:16:52.460Z,3.87
2023-02-13T19:20:20.573Z,3.84
2023-02-13T19:23:48.597Z,3.78
2023-02-13T19:26:37.279Z,3.75
2023-02-13T19:30:05.008Z,3.72
2023-02-13T19:33:16.954Z,3.64
2023-02-13T19:36:45.164Z,3.50
2023-02-13T19:40:12.952Z,3.44
2023-02-13T19:43:40.874Z,3.34
2023-02-13T19:47:09.220Z,3.20
2023-02-13T19:50:24.808Z,3.07
2023-02-13T19:53:52.650Z,2.97
2023-02-13T19:57:20.689Z,2.92
2023-02-13T20:00:09.766Z,2.89
2023-02-13T20:03:21.519Z,2.78
2023-02-13T20:06:31.049Z,2.65
2023-02-13T20:09:59.093Z,2.68
2023-02-13T20:13:27.010Z,2.75
2023-02-13T20:16:55.478Z,2.75
2023-02-13T20:20:23.785Z,2.77
2023-02-13T20:23:51.613Z,2.79
2023-02-13T20:27:19.523Z,2.78
2023-02-13T20:30:47.646Z,2.75
2023-02-13T20:34:15.380Z,2.83
2023-02-13T20:37:27.393Z,2.86
2023-02-13T20:40:55.764Z,2.90
2023-02-13T20:44:23.867Z,2.91
2023-02-13T20:47:33.804Z,2.96
2023-02-13T20:51:01.907Z,3.05
2023-02-13T20:54:25.534Z,3.02
2023-02-13T20:57:53.384Z,3.16
2023-02-13T21:01:02.070Z,3.22
2023-02-13T21:04:29.456Z,3.36
2023-02-13T21:07:57.786Z,3.37
2023-02-13T21:11:13.480Z,3.29
2023-02-13T21:14:21.593Z,3.29
2023-02-13T21:17:45.306Z,3.33
2023-02-13T21:21:09.454Z,3.37
2023-02-13T21:24:37.286Z,3.30
2023-02-13T21:27:06.937Z,3.29
2023-02-13T21:30:19.098Z,3.24
2023-02-13T21:33:46.689Z,3.20
2023-02-13T21:37:14.684Z,3.00
2023-02-13T21:40:38.165Z,2.97
2023-02-13T21:43:45.970Z,2.81
2023-02-13T21:46:57.798Z,2.77
2023-02-13T21:50:25.638Z,2.79
2023-02-13T21:53:53.406Z,2.70
2023-02-13T21:57:21.292Z,2.70
2023-02-13T22:00:38.258Z,2.70
2023-02-13T22:04:06.324Z,2.67
2023-02-13T22:07:33.972Z,2.66
2023-02-13T22:10:50.065Z,2.66
2023-02-13T22:14:17.905Z,2.68
2023-02-13T22:17:26.873Z,2.63
2023-02-13T22:20:54.991Z,2.53
2023-02-13T22:24:22.812Z,2.58
2023-02-13T22:27:50.868Z,2.63
2023-02-13T22:31:18.683Z,2.66
2023-02-13T22:34:46.562Z,2.65
2023-02-13T22:38:02.277Z,2.64
2023-02-13T22:41:17.778Z,2.61
2023-02-13T22:44:11.387Z,2.59
2023-02-13T22:47:39.151Z,2.55
2023-02-13T22:50:31.042Z,2.44
2023-02-13T22:53:39.404Z,2.23
2023-02-13T22:56:43.882Z,2.09
2023-02-13T23:00:11.712Z,1.85
2023-02-13T23:03:39.578Z,1.65
2023-02-13T23:07:07.339Z,1.41
2023-02-13T23:10:35.298Z,1.23
2023-02-13T23:14:03.480Z,1.08
2023-02-13T23:17:31.567Z,0.99
2023-02-13T23:21:00.102Z,0.96
2023-02-13T23:24:11.380Z,0.93
2023-02-13T23:27:21.197Z,0.88
2023-02-13T23:30:49.148Z,0.83
2023-02-13T23:33:58.088Z,0.77
2023-02-13T23:37:06.244Z,0.78
2023-02-13T23:40:34.070Z,0.76
2023-02-13T23:43:26.668Z,0.78
2023-02-13T23:46:36.488Z,0.80
2023-02-13T23:50:04.271Z,0.83
2023-02-13T23:53:32.171Z,0.80
2023-02-13T23:56:40.338Z,0.82
2023-02-13T23:59:49.284Z,0.88
